Time,TemperatureF,DewpointF,PressureIn,WindDirection,WindDirectionDegrees,WindSpeedMPH,WindSpeedGustMPH,Humidity,HourlyPrecipIn,Conditions,Clouds,dailyrainin,SoftwareType,DateUTC
2013-02-18 00:01:00,42.2,30.1,29.95,SSE,159,5.0,10.0,62,0.00,,CLR,0.00,VWS V14.01,2013-02-18 06:01:00,
2013-02-18 00:10:00,42.2,30.1,29.95,SSE,153,6.0,9.0,62,0.00,,CLR,0.00,VWS V14.01,2013-02-18 06:10:00,
2013-02-18 00:20:00,42.2,30.1,29.95,SE,143,6.0,10.0,62,0.00,,CLR,0.00,VWS V14.01,2013-02-18 06:20:00,
2013-02-18 00:30:00,42.1,30.4,29.95,SSE,163,7.0,9.0,63,0.00,,CLR,0.00,VWS V14.01,2013-02-18 06:30:00,
2013-02-18 00:35:00,41.9,30.2,29.95,SSE,151,4.0,9.0,63,0.00,,CLR,0.00,VWS V14.01,2013-02-18 06:35:00,
2013-02-18 00:45:00,41.8,30.5,29.95,SSE,163,4.0,9.0,64,0.00,,CLR,0.00,VWS V14.01,2013-02-18 06:45:00,
2013-02-18 00:50:00,41.6,30.7,29.95,SSE,161,5.0,9.0,65,0.00,,CLR,0.00,VWS V14.01,2013-02-18 06:50:00,
2013-02-18 00:55:00,41.5,30.6,29.95,SSE,155,6.0,8.0,65,0.00,,CLR,0.00,VWS V14.01,2013-02-18 06:55:00,
2013-02-18 01:00:00,41.3,30.4,29.95,South,169,9.0,9.0,65,0.00,,CLR,0.00,VWS V14.01,2013-02-18 07:00:00,
2013-02-18 01:05:00,41.3,30.4,29.95,SSE,155,6.0,9.0,65,0.00,,CLR,0.00,VWS V14.01,2013-02-18 07:05:00,
2013-02-18 01:10:00,41.2,30.7,29.95,SSE,156,8.0,8.0,66,0.00,,CLR,0.00,VWS V14.01,2013-02-18 07:10:00,
2013-02-18 01:20:00,41.2,30.7,29.94,SE,138,7.0,11.0,66,0.00,,CLR,0.00,VWS V14.01,2013-02-18 07:20:00,
2013-02-18 01:30:00,41.1,30.6,29.94,South,180,6.0,11.0,66,0.00,,CLR,0.00,VWS V14.01,2013-02-18 07:30:00,
2013-02-18 01:35:00,41.2,30.7,29.94,SSE,159,6.0,11.0,66,0.00,,CLR,0.00,VWS V14.01,2013-02-18 07:35:00,
2013-02-18 01:40:00,41.2,31.1,29.94,SSE,160,5.0,9.0,67,0.00,,CLR,0.00,VWS V14.01,2013-02-18 07:40:00,
2013-02-18 01:45:00,41.2,31.1,29.94,South,173,6.0,9.0,67,0.00,,CLR,0.00,VWS V14.01,2013-02-18 07:45:00,
2013-02-18 01:55:00,40.9,31.2,29.94,SSE,168,7.0,8.0,68,0.00,,CLR,0.00,VWS V14.01,2013-02-18 07:55:00,
2013-02-18 02:00:00,40.9,31.2,29.94,SSE,167,5.0,8.0,68,0.00,,CLR,0.00,VWS V14.01,2013-02-18 08:00:00,
2013-02-18 02:05:00,40.8,31.4,29.94,SSE,159,5.0,9.0,69,0.00,,CLR,0.00,VWS V14.01,2013-02-18 08:05:00,
2013-02-18 02:10:00,40.8,31.8,29.94,SSE,149,7.0,8.0,70,0.00,,CLR,0.00,VWS V14.01,2013-02-18 08:10:00,
2013-02-18 02:20:00,41.1,32.1,29.94,SSE,155,8.0,10.0,70,0.00,,CLR,0.00,VWS V14.01,2013-02-18 08:20:00,
2013-02-18 02:25:00,41.3,32.3,29.94,SSE,168,9.0,12.0,70,0.00,,CLR,0.00,VWS V14.01,2013-02-18 08:25:00,
2013-02-18 02:30:00,41.9,32.5,29.94,SSE,167,8.0,12.0,69,0.00,,CLR,0.00,VWS V14.01,2013-02-18 08:30:00,
2013-02-18 02:36:00,42.2,32.8,29.94,SSE,151,8.0,11.0,69,0.00,,CLR,0.00,VWS V14.01,2013-02-18 08:36:00,
2013-02-18 02:45:00,42.3,33.2,29.94,SSE,163,6.0,9.0,70,0.00,,CLR,0.00,VWS V14.01,2013-02-18 08:45:00,
2013-02-18 02:55:00,44.6,34.3,29.94,SSE,167,8.0,15.0,67,0.00,,CLR,0.00,VWS V14.01,2013-02-18 08:55:00,
2013-02-18 03:05:00,45.4,34.3,29.94,SSE,157,12.0,15.0,65,0.00,,CLR,0.00,VWS V14.01,2013-02-18 09:05:00,
2013-02-18 03:10:00,45.1,34.4,29.94,South,171,10.0,13.0,66,0.00,,CLR,0.00,VWS V14.01,2013-02-18 09:10:00,
2013-02-18 03:20:00,44.3,34.8,29.94,SSE,164,7.0,11.0,69,0.00,,CLR,0.00,VWS V14.01,2013-02-18 09:20:00,
2013-02-18 03:30:00,43.8,35.0,29.93,SSE,162,7.0,10.0,71,0.00,,CLR,0.00,VWS V14.01,2013-02-18 09:30:00,
2013-02-18 03:35:00,43.8,35.0,29.93,SSE,161,8.0,11.0,71,0.00,,CLR,0.00,VWS V14.01,2013-02-18 09:35:00,
2013-02-18 03:45:00,43.5,35.4,29.93,South,183,7.0,11.0,73,0.00,,CLR,0.00,VWS V14.01,2013-02-18 09:45:00,
2013-02-18 03:50:00,43.6,35.5,29.93,SSE,153,7.0,10.0,73,0.00,,CLR,0.00,VWS V14.01,2013-02-18 09:50:00,
2013-02-18 03:55:00,43.8,36.1,29.93,SSE,163,8.0,10.0,74,0.00,,CLR,0.00,VWS V14.01,2013-02-18 09:55:00,
2013-02-18 04:00:00,44.1,36.4,29.94,South,175,8.0,10.0,74,0.00,,CLR,0.00,VWS V14.01,2013-02-18 10:00:00,
2013-02-18 04:10:00,44.6,36.8,29.94,South,177,8.0,11.0,74,0.00,,CLR,0.00,VWS V14.01,2013-02-18 10:10:00,
2013-02-18 04:15:00,44.6,36.8,29.94,SSE,163,4.0,11.0,74,0.00,,CLR,0.00,VWS V14.01,2013-02-18 10:15:00,
2013-02-18 04:20:00,44.8,37.0,29.94,South,177,7.0,10.0,74,0.00,,CLR,0.00,VWS V14.01,2013-02-18 10:20:00,
2013-02-18 04:25:00,44.8,37.0,29.94,South,173,7.0,12.0,74,0.00,,CLR,0.00,VWS V14.01,2013-02-18 10:25:00,
2013-02-18 04:35:00,44.9,37.1,29.94,SSE,165,4.0,12.0,74,0.00,,CLR,0.00,VWS V14.01,2013-02-18 10:35:00,
2013-02-18 04:40:00,44.9,37.5,29.94,South,182,10.0,10.0,75,0.00,,CLR,0.00,VWS V14.01,2013-02-18 10:40:00,
2013-02-18 04:45:00,44.9,37.5,29.94,SE,146,9.0,13.0,75,0.00,,CLR,0.00,VWS V14.01,2013-02-18 10:45:00,
2013-02-18 04:50:00,44.8,37.4,29.94,South,169,8.0,10.0,75,0.00,,CLR,0.00,VWS V14.01,2013-02-18 10:50:00,
2013-02-18 05:00:00,43.9,37.2,29.94,SSE,153,1.0,7.0,77,0.00,,CLR,0.00,VWS V14.01,2013-02-18 11:00:00,
2013-02-18 05:10:00,42.6,36.5,29.94,SE,146,3.0,5.0,79,0.00,,CLR,0.00,VWS V14.01,2013-02-18 11:10:00,
2013-02-18 05:15:00,42.3,36.6,29.93,SE,145,3.0,8.0,80,0.00,,CLR,0.00,VWS V14.01,2013-02-18 11:15:00,
2013-02-18 05:20:00,42.6,37.2,29.93,SE,129,7.0,10.0,81,0.00,,CLR,0.00,VWS V14.01,2013-02-18 11:20:00,
2013-02-18 05:25:00,42.8,37.4,29.93,SSE,154,10.0,11.0,81,0.00,,CLR,0.00,VWS V14.01,2013-02-18 11:25:00,
2013-02-18 05:30:00,42.9,37.5,29.93,SSE,149,7.0,11.0,81,0.00,,CLR,0.00,VWS V14.01,2013-02-18 11:30:00,
2013-02-18 05:40:00,43.3,37.6,29.93,South,171,8.0,13.0,80,0.00,,CLR,0.00,VWS V14.01,2013-02-18 11:40:00,
2013-02-18 05:50:00,44.3,37.9,29.93,South,183,10.0,16.0,78,0.00,,CLR,0.00,VWS V14.01,2013-02-18 11:50:00,
2013-02-18 05:55:00,44.5,38.1,29.93,SSE,158,11.0,17.0,78,0.00,,CLR,0.00,VWS V14.01,2013-02-18 11:55:00,
2013-02-18 06:00:00,44.8,38.4,29.93,SSE,161,11.0,17.0,78,0.00,,CLR,0.00,VWS V14.01,2013-02-18 12:00:00,
2013-02-18 06:10:00,44.6,38.2,29.93,SSE,165,10.0,15.0,78,0.00,,CLR,0.00,VWS V14.01,2013-02-18 12:10:00,
2013-02-18 06:20:00,44.8,38.7,29.92,SSE,164,15.0,18.0,79,0.00,,CLR,0.00,VWS V14.01,2013-02-18 12:20:00,
2013-02-18 06:25:00,44.9,38.8,29.92,SSE,165,10.0,19.0,79,0.00,,CLR,0.00,VWS V14.01,2013-02-18 12:25:00,
2013-02-18 06:30:00,44.9,38.8,29.93,SSE,165,12.0,18.0,79,0.00,,CLR,0.00,VWS V14.01,2013-02-18 12:30:00,
2013-02-18 06:35:00,44.9,38.8,29.93,South,176,10.0,15.0,79,0.00,,CLR,0.00,VWS V14.01,2013-02-18 12:35:00,
2013-02-18 06:40:00,45.1,39.0,29.93,South,171,8.0,16.0,79,0.00,,CLR,0.00,VWS V14.01,2013-02-18 12:40:00,
2013-02-18 06:45:00,45.1,39.0,29.93,SSE,167,11.0,16.0,79,0.00,,CLR,0.00,VWS V14.01,2013-02-18 12:45:00,
2013-02-18 06:51:00,45.1,39.0,29.93,SSE,157,9.0,17.0,79,0.00,,CLR,0.00,VWS V14.01,2013-02-18 12:51:00,
2013-02-18 07:00:00,44.9,38.8,29.93,South,172,14.0,15.0,79,0.00,,CLR,0.00,VWS V14.01,2013-02-18 13:00:00,
2013-02-18 07:10:00,44.9,38.8,29.93,South,182,10.0,16.0,79,0.00,,CLR,0.00,VWS V14.01,2013-02-18 13:10:00,
2013-02-18 07:15:00,45.1,39.0,29.93,SSE,154,9.0,15.0,79,0.00,,CLR,0.00,VWS V14.01,2013-02-18 13:15:00,
2013-02-18 07:25:00,45.7,38.9,29.93,SE,143,11.0,16.0,77,0.00,,CLR,0.00,VWS V14.01,2013-02-18 13:25:00,
2013-02-18 07:30:00,45.7,38.9,29.93,SSE,160,16.0,16.0,77,0.00,,CLR,0.00,VWS V14.01,2013-02-18 13:30:00,
2013-02-18 07:40:00,46.0,38.9,29.93,SSE,154,13.0,16.0,76,0.00,,CLR,0.00,VWS V14.01,2013-02-18 13:40:00,
2013-02-18 07:45:00,46.0,38.9,29.93,SSW,196,12.0,18.0,76,0.00,,CLR,0.00,VWS V14.01,2013-02-18 13:45:00,
2013-02-18 07:50:00,46.0,38.9,29.93,South,170,14.0,16.0,76,0.00,,CLR,0.00,VWS V14.01,2013-02-18 13:50:00,
2013-02-18 08:00:00,46.2,38.7,29.93,SE,145,14.0,17.0,75,0.00,,CLR,0.00,VWS V14.01,2013-02-18 14:00:00,
2013-02-18 08:05:00,46.7,38.9,29.93,South,169,13.0,17.0,74,0.00,,CLR,0.00,VWS V14.01,2013-02-18 14:05:00,
2013-02-18 08:15:00,47.6,39.0,29.92,SSE,157,12.0,22.0,72,0.00,,CLR,0.00,VWS V14.01,2013-02-18 14:15:00,
2013-02-18 08:25:00,48.2,39.6,29.92,SSE,168,13.0,22.0,72,0.00,,CLR,0.00,VWS V14.01,2013-02-18 14:25:00,
2013-02-18 08:31:00,48.6,39.6,29.92,South,173,15.0,22.0,71,0.00,,CLR,0.00,VWS V14.01,2013-02-18 14:31:00,
2013-02-18 08:40:00,48.9,39.9,29.92,South,171,16.0,22.0,71,0.00,,CLR,0.00,VWS V14.01,2013-02-18 14:40:00,
2013-02-18 08:45:00,49.4,40.0,29.92,South,184,15.0,23.0,70,0.00,,CLR,0.00,VWS V14.01,2013-02-18 14:45:00,
2013-02-18 08:50:00,49.9,40.2,29.92,SSE,148,14.0,22.0,69,0.00,,CLR,0.00,VWS V14.01,2013-02-18 14:50:00,
2013-02-18 09:00:00,51.3,41.1,29.91,SSE,151,25.0,25.0,68,0.00,,CLR,0.00,VWS V14.01,2013-02-18 15:00:00,
2013-02-18 09:05:00,52.2,42.0,29.91,SSE,164,22.0,25.0,68,0.00,,CLR,0.00,VWS V14.01,2013-02-18 15:05:00,
2013-02-18 09:10:00,52.9,42.6,29.91,South,183,20.0,26.0,68,0.00,,CLR,0.00,VWS V14.01,2013-02-18 15:10:00,
2013-02-18 09:20:00,54.2,42.3,29.90,SSE,153,19.0,27.0,64,0.00,,CLR,0.00,VWS V14.01,2013-02-18 15:20:00,
2013-02-18 09:25:00,54.8,43.3,29.90,South,186,12.0,22.0,65,0.00,,CLR,0.00,VWS V14.01,2013-02-18 15:25:00,
2013-02-18 09:30:00,55.1,43.2,29.90,South,180,17.0,23.0,64,0.00,,CLR,0.00,VWS V14.01,2013-02-18 15:30:00,
2013-02-18 09:36:00,55.3,43.3,29.90,SSE,162,19.0,23.0,64,0.00,,FEW075,0.00,VWS V14.01,2013-02-18 15:36:00,
2013-02-18 09:45:00,54.5,42.6,29.90,SSE,167,20.0,26.0,64,0.00,,FEW075,0.00,VWS V14.01,2013-02-18 15:45:00,
2013-02-18 09:55:00,53.6,41.7,29.90,South,175,20.0,26.0,64,0.00,,FEW075,0.00,VWS V14.01,2013-02-18 15:55:00,
2013-02-18 10:00:00,53.2,41.8,29.90,SSW,192,22.0,25.0,65,0.00,,FEW075,0.00,VWS V14.01,2013-02-18 16:00:00,
2013-02-18 10:05:00,52.8,42.5,29.90,SSE,157,23.0,24.0,68,0.00,,FEW075,0.00,VWS V14.01,2013-02-18 16:05:00,
2013-02-18 10:10:00,52.3,42.5,29.90,SSE,150,24.0,27.0,69,0.00,,FEW075,0.00,VWS V14.01,2013-02-18 16:10:00,
2013-02-18 10:20:00,51.9,42.8,29.89,SSW,192,21.0,22.0,71,0.01,,FEW075,0.01,VWS V14.01,2013-02-18 16:20:00,
2013-02-18 10:25:00,51.9,42.8,29.89,South,169,13.0,21.0,71,0.01,,FEW075,0.01,VWS V14.01,2013-02-18 16:25:00,
2013-02-18 10:31:00,51.7,42.6,29.89,SE,134,16.0,24.0,71,0.01,,FEW075,0.01,VWS V14.01,2013-02-18 16:31:00,
2013-02-18 10:40:00,51.3,42.2,29.89,SSE,159,12.0,24.0,71,0.01,,OVC038,0.01,VWS V14.01,2013-02-18 16:40:00,
2013-02-18 10:46:00,51.1,42.0,29.88,SSE,156,13.0,22.0,71,0.01,,OVC038,0.01,VWS V14.01,2013-02-18 16:46:00,
2013-02-18 10:55:00,51.0,41.9,29.88,South,174,15.0,19.0,71,0.01,,OVC038,0.01,VWS V14.01,2013-02-18 16:55:00,
2013-02-18 11:05:00,51.6,42.9,29.88,SSE,151,14.0,21.0,72,0.01,,OVC038,0.01,VWS V14.01,2013-02-18 17:05:00,
2013-02-18 11:10:00,51.7,42.6,29.88,SSE,168,13.0,20.0,71,0.01,,OVC038,0.01,VWS V14.01,2013-02-18 17:10:00,
2013-02-18 11:15:00,51.7,42.6,29.87,SSE,164,14.0,21.0,71,0.01,,OVC038,0.01,VWS V14.01,2013-02-18 17:15:00,
2013-02-18 11:25:00,51.7,43.3,29.87,SSE,160,16.0,21.0,73,0.00,,OVC038,0.01,VWS V14.01,2013-02-18 17:25:00,
2013-02-18 11:30:00,52.2,43.5,29.84,SSE,168,17.0,20.0,72,0.00,,OVC038,0.01,VWS V14.01,2013-02-18 17:30:00,
2013-02-18 11:35:00,52.6,43.5,29.84,SSE,157,18.0,23.0,71,0.00,,OVC036,0.01,VWS V14.01,2013-02-18 17:35:00,
2013-02-18 11:45:00,53.2,44.4,29.84,SSE,167,16.0,19.0,72,0.00,,OVC036,0.01,VWS V14.01,2013-02-18 17:45:00,
2013-02-18 11:51:00,53.6,45.2,29.84,SSE,165,17.0,19.0,73,0.00,,OVC036,0.01,VWS V14.01,2013-02-18 17:51:00,
2013-02-18 12:00:00,54.2,44.3,29.83,SE,137,14.0,21.0,69,0.00,,OVC036,0.01,VWS V14.01,2013-02-18 18:00:00,
2013-02-18 12:05:00,54.7,44.4,29.83,South,182,15.0,22.0,68,0.00,,OVC036,0.01,VWS V14.01,2013-02-18 18:05:00,
2013-02-18 12:15:00,54.4,45.9,29.83,SSE,149,6.0,18.0,73,0.00,,OVC036,0.01,VWS V14.01,2013-02-18 18:15:00,
2013-02-18 12:20:00,53.9,46.5,29.83,SSW,202,5.0,15.0,76,0.01,,OVC036,0.02,VWS V14.01,2013-02-18 18:20:00,
2013-02-18 12:25:00,53.2,46.9,29.83,South,175,5.0,13.0,79,0.02,,OVC036,0.03,VWS V14.01,2013-02-18 18:25:00,
2013-02-18 12:30:00,52.6,46.9,29.83,SSE,161,12.0,15.0,81,0.04,,OVC036,0.05,VWS V14.01,2013-02-18 18:30:00,
2013-02-18 12:40:00,52.3,47.3,29.83,South,170,14.0,21.0,83,0.07,,-RA,0.08,VWS V14.01,2013-02-18 18:40:00,
2013-02-18 12:45:00,52.3,47.3,29.80,SSE,167,12.0,20.0,83,0.08,,-RA,0.09,VWS V14.01,2013-02-18 18:45:00,
2013-02-18 12:55:00,52.3,47.3,29.80,SSE,157,15.0,20.0,83,0.09,,-RA,0.10,VWS V14.01,2013-02-18 18:55:00,
2013-02-18 13:05:00,52.3,46.7,29.78,SSE,167,14.0,21.0,81,0.11,,-RA,0.12,VWS V14.01,2013-02-18 19:05:00,
2013-02-18 13:10:00,52.2,47.5,29.78,SSE,155,11.0,20.0,84,0.12,,-RA,0.13,VWS V14.01,2013-02-18 19:10:00,
2013-02-18 13:20:00,51.6,47.2,29.78,SSE,158,14.0,15.0,85,0.14,,-RA,0.15,VWS V14.01,2013-02-18 19:20:00,
2013-02-18 13:30:00,51.3,47.0,29.76,SSE,155,16.0,22.0,85,0.14,,-RA,0.17,VWS V14.01,2013-02-18 19:30:00,
2013-02-18 13:35:00,51.3,47.0,29.76,South,171,16.0,19.0,85,0.13,,-RA,0.18,VWS V14.01,2013-02-18 19:35:00,
2013-02-18 13:40:00,51.3,47.0,29.76,SSE,162,16.0,16.0,85,0.11,,-RA,0.18,VWS V14.01,2013-02-18 19:40:00,
2013-02-18 13:50:00,51.4,47.4,29.76,SSE,153,16.0,20.0,86,0.10,,-RA,0.19,VWS V14.01,2013-02-18 19:50:00,
2013-02-18 13:55:00,51.3,47.6,29.76,SSE,157,18.0,21.0,87,0.10,,-RA,0.20,VWS V14.01,2013-02-18 19:55:00,
2013-02-18 14:00:00,51.3,47.9,29.75,SE,127,17.0,20.0,88,0.11,,-RA,0.21,VWS V14.01,2013-02-18 20:00:00,
2013-02-18 14:10:00,51.3,47.9,29.75,SSE,168,18.0,27.0,88,0.10,,OVC016,0.22,VWS V14.01,2013-02-18 20:10:00,
2013-02-18 14:20:00,51.3,47.9,29.73,SSE,156,18.0,22.0,88,0.11,,OVC016,0.25,VWS V14.01,2013-02-18 20:20:00,
2013-02-18 14:25:00,51.1,48.0,29.73,SSE,155,10.0,18.0,89,0.13,,OVC016,0.28,VWS V14.01,2013-02-18 20:25:00,
2013-02-18 14:36:00,51.1,48.0,29.73,SSE,157,13.0,18.0,89,0.12,,-RA,0.29,VWS V14.01,2013-02-18 20:36:00,
2013-02-18 14:40:00,51.1,48.0,29.73,SSE,167,8.0,17.0,89,0.11,,-RA,0.29,VWS V14.01,2013-02-18 20:40:00,
2013-02-18 14:50:00,51.3,48.2,29.72,SE,142,15.0,17.0,89,0.11,,-RA,0.29,VWS V14.01,2013-02-18 20:50:00,
2013-02-18 14:55:00,51.1,48.0,29.72,SSE,161,10.0,16.0,89,0.11,,-RA,0.30,VWS V14.01,2013-02-18 20:55:00,
2013-02-18 15:01:00,51.0,47.9,29.72,SSE,158,14.0,17.0,89,0.11,,-RA,0.31,VWS V14.01,2013-02-18 21:01:00,
2013-02-18 15:10:00,51.0,48.2,29.72,SE,145,7.0,13.0,90,0.10,,-RA,0.31,VWS V14.01,2013-02-18 21:10:00,
2013-02-18 15:20:00,51.1,48.0,29.70,SE,146,12.0,16.0,89,0.08,,-RA,0.31,VWS V14.01,2013-02-18 21:20:00,
2013-02-18 15:25:00,51.3,48.2,29.70,SSE,154,10.0,17.0,89,0.06,,-RA,0.31,VWS V14.01,2013-02-18 21:25:00,
2013-02-18 15:35:00,51.9,47.8,29.70,SSE,147,13.0,17.0,86,0.03,,,0.31,VWS V14.01,2013-02-18 21:35:00,
2013-02-18 15:41:00,52.2,47.8,29.70,South,171,9.0,18.0,85,0.02,,,0.31,VWS V14.01,2013-02-18 21:41:00,
2013-02-18 15:50:00,52.6,47.6,29.68,SSE,157,13.0,22.0,83,0.02,,,0.31,VWS V14.01,2013-02-18 21:50:00,
2013-02-18 16:00:00,52.8,47.5,29.67,SSE,158,9.0,17.0,82,0.01,,,0.31,VWS V14.01,2013-02-18 22:00:00,
2013-02-18 16:10:00,52.5,47.5,29.67,SSE,148,7.0,17.0,83,0.01,,-RA,0.32,VWS V14.01,2013-02-18 22:10:00,
2013-02-18 16:16:00,52.6,47.6,29.66,SSE,148,9.0,20.0,83,0.01,,-RA,0.32,VWS V14.01,2013-02-18 22:16:00,
2013-02-18 16:25:00,52.5,47.5,29.66,SSE,162,9.0,20.0,83,0.01,,-RA,0.32,VWS V14.01,2013-02-18 22:25:00,
2013-02-18 16:30:00,52.5,47.8,29.65,SSE,161,12.0,22.0,84,0.01,,-RA,0.32,VWS V14.01,2013-02-18 22:30:00,
2013-02-18 16:36:00,52.5,47.8,29.65,SSE,164,15.0,18.0,84,0.02,,RA,0.33,VWS V14.01,2013-02-18 22:36:00,
2013-02-18 16:45:00,52.5,47.8,29.65,South,173,11.0,20.0,84,0.02,,RA,0.33,VWS V14.01,2013-02-18 22:45:00,